Latest Weather Observations for Geelong Racecourse

IDV60801

Issued at 11:35 pm EST Tuesday 2 September 2014 (issued every 30 minutes, with the page automatically refreshed every 10 minutes)

About weather observations | Map of weather stations | Latest weather observations for VIC | Other Formats
Station Details ID: 087184 Name: GEELONG RACECOURSE Lat: -38.17 Lon: 144.38 Height: 12.9 m
Data from the previous 72 hours. | See also: Recent months at Geelong Racecourse
Date/Time
EST
Temp
°C
App
Temp
°C
Dew
Point
Rel
Hum
%
Delta-T
°C
Wind Press
QNH
hPa
Press
MSL
hPa
Rain
since 9 am
mm
Dir
 
Spd
km/h
Gust
km/h
Spd
kts
Gust
kts
02/11:30pm 7.2 4.2 6.0 92 0.5 WSW 11 15 6 8 1023.5 1023.5 1.8
02/11:00pm 7.3 4.7 6.1 92 0.5 WSW 9 13 5 7 1023.6 1023.6 1.8
02/10:30pm 8.2 5.1 7.1 93 0.5 WSW 13 19 7 10 1023.7 1023.7 1.8
02/10:00pm 8.1 5.3 7.0 93 0.5 WSW 11 15 6 8 1023.8 1023.8 1.6
02/09:30pm 7.9 5.0 6.7 92 0.6 WSW 11 15 6 8 1023.7 1023.7 1.6
02/09:00pm 7.9 4.6 6.2 89 0.8 WSW 13 19 7 10 1023.7 1023.7 1.6
02/08:30pm 7.6 4.7 4.7 82 1.3 W 9 13 5 7 1023.6 1023.6 1.6
02/08:00pm 8.1 5.1 4.1 76 1.7 WSW 9 11 5 6 1023.4 1023.4 1.6
02/07:30pm 7.8 5.1 3.7 75 1.8 WSW 7 11 4 6 1023.1 1023.1 1.6
02/07:00pm 8.1 5.4 3.6 73 1.9 SW 7 9 4 5 1022.9 1022.9 1.6
02/06:30pm 9.4 6.0 4.2 70 2.3 SW 11 15 6 8 1022.6 1022.6 1.6
02/06:00pm 10.5 6.0 4.2 65 2.8 SSW 17 24 9 13 1022.3 1022.3 1.6
02/05:30pm 11.8 6.5 5.0 63 3.1 SSW 22 33 12 18 1021.9 1021.9 1.4
02/05:00pm 12.3 7.6 5.9 65 3.0 S 20 30 11 16 1021.6 1021.6 1.4
02/04:30pm 12.0 7.7 7.1 72 2.4 S 19 26 10 14 1021.3 1021.3 1.4
02/04:00pm 12.7 7.4 6.7 67 2.9 S 24 37 13 20 1020.9 1020.9 1.4
02/03:30pm 12.5 7.0 5.7 63 3.2 S 24 39 13 21 1020.5 1020.5 1.2
02/03:08pm 13.1 7.2 7.3 68 2.8 S 28 46 15 25 1020.5 1020.5 1.2
02/03:00pm 13.5 6.9 5.9 60 3.6 S 30 43 16 23 1020.5 1020.5 1.2
02/02:30pm 12.9 6.2 5.8 62 3.3 SSW 30 41 16 22 1020.3 1020.3 1.2
02/02:00pm 13.6 7.6 7.2 65 3.1 S 28 37 15 20 1020.0 1020.0 1.0
02/01:30pm 12.9 6.7 6.3 64 3.1 S 28 41 15 22 1019.9 1019.9 1.0
02/01:00pm 13.3 7.8 7.5 68 2.8 S 26 39 14 21 1019.8 1019.8 0.8
02/12:30pm 13.4 7.4 8.5 72 2.4 S 30 41 16 22 1019.9 1019.9 0.8
02/12:00pm 13.1 8.1 8.2 72 2.4 S 24 33 13 18 1019.8 1019.8 0.6
02/11:30am 12.3 6.9 7.8 74 2.2 SSW 26 35 14 19 1020.0 1020.0 0.6
02/11:00am 13.1 8.5 9.5 79 1.8 S 24 39 13 21 1019.7 1019.7 0.4
02/10:30am 12.0 6.6 10.9 93 0.6 S 30 43 16 23 1019.6 1019.6 0.2
02/10:00am 10.5 5.5 9.4 93 0.5 SSW 26 41 14 22 1019.4 1019.4 0.2
02/09:55am 10.1 4.6 9.0 93 0.5 SSW 28 48 15 26 1019.4 1019.4 0.2
02/09:30am 11.4 7.1 7.7 78 1.8 S 20 33 11 18 1019.1 1019.1 0.0
02/09:00am 10.5 8.3 9.3 92 0.6 WSW 11 17 6 9 1018.8 1018.8 3.4
02/08:30am 9.6 6.8 8.5 93 0.5 WSW 13 20 7 11 1018.4 1018.4 3.4
02/08:00am 9.4 6.9 8.3 93 0.5 WSW 11 15 6 8 1017.9 1017.9 3.4
02/07:30am 8.7 6.1 7.6 93 0.5 W 11 15 6 8 1017.5 1017.5 3.4
02/07:00am 8.1 5.7 7.0 93 0.5 W 9 13 5 7 1017.1 1017.1 3.4
02/06:30am 7.8 5.8 6.9 94 0.4 SW 7 15 4 8 1016.8 1016.8 3.4
02/06:00am 7.7 5.3 6.8 94 0.4 W 9 15 5 8 1016.2 1016.2 3.4
02/05:30am 8.0 4.5 7.1 94 0.4 WSW 15 28 8 15 1015.8 1015.8 3.4
02/05:00am 7.6 5.5 6.7 94 0.4 WNW 7 11 4 6 1015.3 1015.3 3.2
02/04:30am 8.4 6.5 7.5 94 0.4 W 7 9 4 5 1015.0 1015.0 3.2
02/04:00am 8.6 6.0 7.7 94 0.4 WSW 11 13 6 7 1014.9 1014.9 3.2
02/03:30am 8.4 5.7 7.5 94 0.4 W 11 19 6 10 1014.8 1014.8 3.2
02/03:00am 8.1 5.7 7.2 94 0.4 WNW 9 11 5 6 1014.2 1014.2 3.2
02/02:30am 8.5 5.5 7.6 94 0.4 WSW 13 19 7 10 1014.3 1014.3 3.2
02/02:00am 7.7 5.8 6.8 94 0.4 WNW 6 7 3 4 1014.1 1014.1 3.2
02/01:30am 8.3 6.5 7.2 93 0.5 WNW 6 9 3 5 1013.9 1013.9 3.2
02/01:00am 9.0 7.2 7.9 93 0.5 W 7 13 4 7 1013.7 1013.7 3.2
02/12:30am 9.2 6.7 8.1 93 0.5 W 11 15 6 8 1013.6 1013.6 3.2
02/12:00am 9.0 6.0 7.9 93 0.5 WSW 13 17 7 9 1013.6 1013.6 3.2
 
Date/Time
EST
Temp
°C
App
Temp
°C
Dew
Point
Rel
Hum
%
Delta-T
°C
Wind Press
QNH
hPa
Press
MSL
hPa
Rain
since 9 am
mm
Dir
 
Spd
km/h
Gust
km/h
Spd
kts
Gust
kts
01/11:30pm 8.1 6.1 7.0 93 0.5 WNW 7 11 4 6 1013.3 1013.3 3.2
01/11:00pm 7.9 5.9 7.0 94 0.4 WNW 7 11 4 6 1013.1 1013.1 3.2
01/10:30pm 8.4 6.6 7.3 93 0.5 W 6 9 3 5 1013.1 1013.1 3.0
01/10:00pm 8.9 7.3 7.8 93 0.5 WNW 6 11 3 6 1012.7 1012.7 3.0
01/09:30pm 9.5 7.8 8.4 93 0.5 WNW 7 13 4 7 1012.6 1012.6 3.0
01/09:00pm 9.6 8.1 8.5 93 0.5 WNW 6 9 3 5 1012.3 1012.3 3.0
01/08:30pm 9.8 8.2 8.7 93 0.5 W 7 9 4 5 1011.9 1011.9 3.0
01/08:00pm 9.8 8.8 8.7 93 0.5 WNW 4 7 2 4 1011.6 1011.6 3.0
01/07:30pm 9.6 7.9 8.5 93 0.5 WNW 7 9 4 5 1011.4 1011.4 3.0
01/07:00pm 9.7 8.1 8.6 93 0.5 WNW 7 11 4 6 1011.1 1011.1 3.0
01/06:30pm 10.0 8.1 8.9 93 0.5 WNW 9 13 5 7 1010.8 1010.8 3.0
01/06:00pm 10.4 8.9 9.3 93 0.5 W 7 11 4 6 1010.8 1010.8 2.8
01/05:30pm 10.4 8.9 9.2 92 0.6 WSW 7 11 4 6 1010.3 1010.3 2.8
01/05:00pm 12.0 8.5 10.1 88 1.0 SSW 19 32 10 17 1009.6 1009.6 2.8
01/04:30pm 12.6 10.5 11.3 92 0.7 SSW 13 17 7 9 1009.2 1009.2 2.8
01/04:00pm 12.4 11.1 11.3 93 0.6 S 9 11 5 6 1008.9 1008.9 2.8
01/03:30pm 11.9 9.3 10.6 92 0.7 S 15 26 8 14 1008.6 1008.6 2.8
01/03:00pm 13.2 12.7 12.1 93 0.6 W 6 9 3 5 1008.2 1008.2 2.6
01/02:30pm 12.3 11.0 11.2 93 0.6 WNW 9 15 5 8 1008.4 1008.4 2.6
01/02:00pm 12.3 11.0 11.2 93 0.6 WNW 9 17 5 9 1008.2 1008.2 2.6
01/01:30pm 12.2 10.5 11.1 93 0.6 WNW 11 17 6 9 1008.5 1008.5 2.6
01/01:00pm 12.6 11.0 11.5 93 0.6 WNW 11 20 6 11 1008.6 1008.6 2.4
01/12:30pm 13.4 11.9 11.8 90 0.9 WNW 11 19 6 10 1008.5 1008.5 2.2
01/12:00pm 13.3 11.8 12.0 92 0.7 WNW 11 19 6 10 1008.5 1008.5 2.2
01/11:30am 12.7 11.4 11.4 92 0.7 NW 9 17 5 9 1008.5 1008.5 2.0
01/11:00am 12.0 10.6 10.9 93 0.6 NW 9 13 5 7 1008.6 1008.6 1.6
01/10:30am 11.6 10.5 10.5 93 0.6 WNW 7 13 4 7 1008.8 1008.8 1.0
01/10:00am 11.1 9.1 10.0 93 0.6 N 11 19 6 10 1009.2 1009.2 0.6
01/09:30am 11.1 8.3 10.0 93 0.6 N 15 19 8 10 1008.8 1008.8 0.2
01/09:00am 11.2 9.2 10.0 92 0.6 NW 11 19 6 10 1008.7 1008.7 0.4
01/08:30am 11.6 9.9 8.3 80 1.6 WNW 7 13 4 7 1008.6 1008.6 0.2
01/08:00am 12.7 10.7 7.0 68 2.8 NNW 7 11 4 6 1008.5 1008.5 0.0
01/07:30am 13.3 11.2 5.9 61 3.5 WNW 6 7 3 4 1008.4 1008.4 0.0
01/07:00am 13.2 11.0 6.1 62 3.4 N 7 9 4 5 1008.2 1008.2 0.0
01/06:30am 13.3 11.6 5.7 60 3.6 N 4 6 2 3 1007.5 1007.5 0.0
01/06:00am 14.1 11.9 5.5 56 4.1 N 6 9 3 5 1007.8 1007.8 0.0
01/05:30am 14.4 12.2 5.5 55 4.2 N 6 9 3 5 1007.8 1007.8 0.0
01/05:00am 15.0 12.2 5.0 51 4.7 N 9 13 5 7 1008.0 1008.0 0.0
01/04:30am 15.7 10.0 5.0 49 5.1 N 24 35 13 19 1007.1 1007.1 0.0
01/04:00am 15.9 10.2 4.9 48 5.2 N 24 35 13 19 1006.4 1006.4 0.0
01/03:30am 16.1 10.1 5.4 49 5.1 N 26 39 14 21 1006.6 1006.6 0.0
01/03:00am 16.0 11.2 5.6 50 5.0 N 20 26 11 14 1007.1 1007.1 0.0
01/02:30am 16.3 11.6 5.9 50 5.0 N 20 35 11 19 1007.8 1007.8 0.0
01/02:00am 16.6 11.8 5.6 48 5.3 N 20 32 11 17 1008.0 1008.0 0.0
01/01:30am 16.8 12.2 5.7 48 5.4 N 19 30 10 16 1008.3 1008.3 0.0
01/01:00am 17.1 11.9 5.7 47 5.5 N 22 35 12 19 1008.6 1008.6 0.0
01/12:30am 16.1 13.2 6.5 53 4.7 N 11 17 6 9 1009.1 1009.1 0.0
01/12:00am 14.9 12.7 7.9 63 3.5 NNE 9 13 5 7 1009.3 1009.3 0.0
 
Date/Time
EST
Temp
°C
App
Temp
°C
Dew
Point
Rel
Hum
%
Delta-T
°C
Wind Press
QNH
hPa
Press
MSL
hPa
Rain
since 9 am
mm
Dir
 
Spd
km/h
Gust
km/h
Spd
kts
Gust
kts
31/11:30pm 15.1 12.5 7.9 62 3.6 NNE 11 15 6 8 1009.5 1009.5 0.0
31/11:00pm 16.0 13.0 7.7 58 4.2 NNE 13 20 7 11 1010.0 1010.0 0.0
31/10:30pm 15.9 13.1 8.4 61 3.8 NNE 13 22 7 12 1009.9 1009.9 0.0
31/10:00pm 15.8 12.7 9.0 64 3.5 NNE 15 22 8 12 1010.2 1010.2 0.0
31/09:30pm 16.1 12.4 9.3 64 3.5 NNE 19 28 10 15 1010.4 1010.4 0.0
31/09:00pm 15.9 12.5 9.3 65 3.4 NNE 17 28 9 15 1011.3 1011.3 0.0
31/08:30pm 16.1 12.3 9.1 63 3.6 NNE 19 30 10 16 1011.7 1011.7 0.0
31/08:00pm 16.3 12.3 9.0 62 3.8 NNE 20 32 11 17 1012.1 1012.1 0.0
31/07:30pm 16.2 12.2 9.2 63 3.6 NNE 20 32 11 17 1012.2 1012.2 0.0
31/07:00pm 15.9 12.5 9.3 65 3.4 NNE 17 30 9 16 1012.3 1012.3 0.0
31/06:30pm 16.5 13.7 8.7 60 4.0 NNE 13 19 7 10 1012.5 1012.5 0.0
31/06:00pm 17.5 13.3 8.1 54 4.8 NNE 20 30 11 16 1012.4 1012.4 0.0
31/05:30pm 18.2 13.8 7.6 50 5.4 N 20 33 11 18 1012.5 1012.5 0.0
31/05:00pm 18.8 14.4 7.3 47 5.8 N 20 30 11 16 1012.6 1012.6 0.0
31/04:30pm 19.4 14.9 6.8 44 6.3 N 20 32 11 17 1012.5 1012.5 0.0
31/04:00pm 19.6 14.7 6.7 43 6.5 N 22 33 12 18 1012.6 1012.6 0.0
31/03:30pm 20.8 15.9 6.7 40 7.1 N 22 35 12 19 1012.7 1012.7 0.0
31/03:00pm 21.0 15.9 6.2 38 7.4 N 22 33 12 18 1012.8 1012.8 0.0
31/02:30pm 21.1 16.4 5.9 37 7.6 N 20 32 11 17 1013.2 1013.2 0.0
31/02:00pm 21.4 15.9 5.7 36 7.8 N 24 37 13 20 1013.5 1013.5 0.0
31/01:30pm 21.9 17.6 7.0 38 7.6 N 19 30 10 16 1014.0 1014.0 0.0
31/01:00pm 20.8 15.4 6.4 39 7.3 NNW 24 37 13 20 1014.6 1014.6 0.0
31/12:30pm 21.4 17.7 6.1 37 7.7 N 15 28 8 15 1014.8 1014.8 0.0
31/12:00pm 22.3 19.8 8.1 40 7.4 N 11 19 6 10 1015.3 1015.3 0.0
31/11:30am 20.6 17.9 7.2 42 6.8 N 11 20 6 11 1015.8 1015.8 0.0
31/11:00am 19.5 19.2 11.5 60 4.4 NNW 4 7 2 4 1016.4 1016.4 0.0
31/10:30am 17.3 15.5 10.7 65 3.5 NE 11 15 6 8 1016.7 1016.7 0.0
31/10:00am 15.8 13.5 10.3 70 2.9 NE 13 19 7 10 1017.1 1017.1 0.0
31/09:30am 14.8 12.1 10.4 75 2.3 NE 15 20 8 11 1017.5 1017.5 0.0
31/09:00am 13.9 12.0 10.5 80 1.8 NE 11 17 6 9 1017.7 1017.7 0.0
31/08:30am 12.9 11.3 11.6 92 0.7 NE 11 15 6 8 1018.0 1018.0 0.0
31/08:00am 11.5 10.0 10.6 94 0.5 NNE 9 11 5 6 1018.1 1018.1 0.0
31/07:30am 8.0 6.0 7.2 95 0.4 NNE 7 9 4 5 1018.1 1018.1 0.0
31/07:00am 6.6 4.5 5.7 94 0.4 N 6 7 3 4 1018.2 1018.2 0.0
31/06:30am 6.6 4.9 5.7 94 0.4 NNE 4 7 2 4 1018.1 1018.1 0.0
31/06:00am 6.8 5.1 5.9 94 0.4 N 4 6 2 3 1018.1 1018.1 0.0
31/05:30am 7.0 5.3 6.1 94 0.4 N 4 6 2 3 1018.1 1018.1 0.0
31/05:00am 8.4 7.1 7.5 94 0.4 NE 4 7 2 4 1017.9 1017.9 0.0
31/04:30am 7.9 6.1 7.0 94 0.4 NNE 6 7 3 4 1017.9 1017.9 0.0
31/04:00am 8.9 7.3 8.0 94 0.4 NNE 6 7 3 4 1018.0 1018.0 0.0
31/03:30am 8.8 7.2 7.9 94 0.4 N 6 7 3 4 1018.2 1018.2 0.0
31/03:00am 9.0 7.8 8.1 94 0.4 N 4 4 2 2 1018.5 1018.5 0.0
31/02:30am 9.5 8.4 8.6 94 0.4 N 4 4 2 2 1018.7 1018.7 0.0
31/02:00am 9.3 8.1 8.2 93 0.5 N 4 4 2 2 1019.0 1019.0 0.0
31/01:30am 10.0 9.0 8.9 93 0.5 NNE 4 6 2 3 1019.1 1019.1 0.0
31/01:00am 10.1 8.7 9.0 93 0.5 N 6 6 3 3 1019.4 1019.4 0.0
31/12:30am 10.2 9.2 9.0 92 0.6 N 4 6 2 3 1019.7 1019.7 0.0
31/12:00am 10.9 9.7 9.7 92 0.6 N 6 7 3 4 1019.9 1019.9 0.0

Other Formats:

Comma delimited format used in spreadsheet applications
http://www.bom.gov.au/fwo/IDV60801/IDV60801.94857.axf

JavaScript Object Notation format (JSON) in row-major order
http://www.bom.gov.au/fwo/IDV60801/IDV60801.94857.json